Time;durP1;ratioP1;P1;durP2;ratioP2;P2;SDS_P1;SDS_P2;PMS_P1;PMS_P2;Temp;Humidity;BMP_temperature;BMP_pressure;BME280_temperature;BME280_humidity;BME280_pressure;Samples;Min_cycle;Max_cycle;Signal;HPM_P1;HPM_P2
2022/10/25 00:39:03;;;;;;;8.73;2.67;;;13.10;99.90;;;;;;6217361;22;20024;-93
2022/10/25 00:41:31;;;;;;;7.90;2.88;;;13.20;99.90;;;;;;6211405;23;20009;-94
2022/10/25 00:44:34;;;;;;;7.80;2.45;;;13.10;99.90;;;;;;6150202;23;20042;-95
2022/10/25 00:47:44;;;;;;;7.30;3.08;;;13.10;99.90;;;;;;6172832;23;20030;-92
2022/10/25 00:50:16;;;;;;;9.93;2.97;;;13.10;99.90;;;;;;6172242;23;20073;-93
2022/10/25 00:52:46;;;;;;;8.32;2.95;;;13.10;99.90;;;;;;6070633;23;20053;-93
2022/10/25 00:55:15;;;;;;;8.07;3.22;;;13.10;99.90;;;;;;6169469;23;20018;-94
2022/10/25 00:58:05;;;;;;;8.45;3.00;;;13.10;99.90;;;;;;6173065;23;20019;-96
2022/10/25 03:19:51;;;;;;;6.00;2.55;;;13.50;99.90;;;;;;6312074;22;20504;-93
2022/10/25 03:22:17;;;;;;;6.70;2.92;;;13.50;99.90;;;;;;6236524;22;20029;-94
2022/10/25 03:24:43;;;;;;;7.77;2.93;;;13.50;99.90;;;;;;6245485;22;20000;-92
2022/10/25 03:27:09;;;;;;;5.80;2.63;;;13.50;99.90;;;;;;6283228;22;20019;-95
2022/10/25 03:35:52;;;;;;;7.68;2.88;;;13.50;99.90;;;;;;6210487;22;20028;-95
2022/10/25 03:38:42;;;;;;;8.48;2.75;;;13.40;99.90;;;;;;6202931;23;20030;-96
2022/10/25 03:41:08;;;;;;;6.75;2.75;;;13.50;99.90;;;;;;6172224;23;20022;-93
2022/10/25 03:43:56;;;;;;;5.30;2.28;;;13.50;99.90;;;;;;6171257;23;20024;-95
2022/10/25 03:46:22;;;;;;;6.22;2.45;;;13.40;99.90;;;;;;6171949;23;20022;-93
2022/10/25 03:48:48;;;;;;;5.10;2.30;;;13.40;99.90;;;;;;6171716;23;20014;-92
2022/10/25 03:51:25;;;;;;;7.03;2.70;;;13.40;99.90;;;;;;6170470;23;20266;-93
2022/10/25 03:54:05;;;;;;;6.75;2.30;;;13.40;99.90;;;;;;6170485;23;20015;-94
2022/10/25 04:28:51;;;;;;;7.18;2.28;;;13.40;99.90;;;;;;6094750;23;20026;-96
2022/10/25 04:31:54;;;;;;;7.45;2.70;;;13.40;99.90;;;;;;6197066;23;20058;-95
2022/10/25 11:59:37;;;;;;;2.13;0.57;;;15.50;99.90;;;;;;6275681;22;20342;-94
2022/10/25 12:04:52;;;;;;;3.78;0.90;;;15.60;99.90;;;;;;6094634;23;20096;-95
2022/10/25 13:01:46;;;;;;;2.92;0.63;;;16.40;99.90;;;;;;6212675;22;1361069;-95
2022/10/25 13:04:37;;;;;;;1.88;0.60;;;16.20;99.90;;;;;;6168716;22;20020;-94
2022/10/25 13:07:04;;;;;;;1.10;0.52;;;16.30;99.90;;;;;;6170324;22;20012;-95
2022/10/25 13:09:33;;;;;;;2.88;0.60;;;16.40;99.90;;;;;;6168026;22;20093;-95
2022/10/25 13:12:03;;;;;;;4.78;0.90;;;16.40;99.90;;;;;;6168510;22;20021;-94
2022/10/25 13:14:32;;;;;;;1.75;0.57;;;16.40;99.90;;;;;;6169069;22;20023;-96
2022/10/25 13:17:18;;;;;;;1.48;0.60;;;16.40;99.90;;;;;;6170231;22;20077;-94
2022/10/25 13:19:49;;;;;;;2.40;0.68;;;16.40;99.90;;;;;;6168204;22;20048;-93
2022/10/25 13:22:36;;;;;;;1.17;0.60;;;16.30;99.90;;;;;;6169266;22;20028;-96
2022/10/25 13:25:31;;;;;;;4.25;1.02;;;16.30;99.90;;;;;;6168834;22;20048;-93
2022/10/25 13:28:38;;;;;;;2.38;0.63;;;16.30;99.90;;;;;;6155942;22;20052;-95
2022/10/25 15:58:17;;;;;;;4.72;1.90;;;15.20;99.90;;;;;;6178607;22;20028;-95
2022/10/25 17:57:49;;;;;;;5.00;1.70;;;13.50;99.90;;;;;;6148525;22;20052;-94
2022/10/25 18:00:17;;;;;;;7.15;2.25;;;13.50;99.90;;;;;;6288395;22;20015;-94
2022/10/25 18:05:20;;;;;;;4.88;2.08;;;13.60;99.90;;;;;;6279267;22;20026;-94
2022/10/25 20:05:16;;;;;;;6.78;3.13;;;13.10;99.90;;;;;;6205388;22;20024;-94
2022/10/25 20:07:42;;;;;;;6.22;3.08;;;13.00;99.90;;;;;;6285932;22;20019;-94
2022/10/25 20:56:52;;;;;;;6.70;3.35;;;12.60;99.90;;;;;;6339393;22;20029;-93
2022/10/25 20:59:21;;;;;;;6.45;3.22;;;12.50;99.90;;;;;;6286607;22;20072;-94
2022/10/25 21:02:06;;;;;;;6.95;3.00;;;12.50;99.90;;;;;;6286778;22;20015;-95
2022/10/25 21:55:14;;;;;;;5.65;2.50;;;12.30;99.90;;;;;;6340748;22;20023;-93
2022/10/25 21:57:39;;;;;;;6.43;2.80;;;12.40;99.90;;;;;;6288415;22;20019;-93
2022/10/25 22:00:09;;;;;;;6.68;2.72;;;12.40;99.90;;;;;;6287983;22;20022;-95
2022/10/25 22:15:37;;;;;;;7.15;2.58;;;12.40;99.90;;;;;;6340883;22;20390;-95
2022/10/25 22:18:03;;;;;;;5.82;2.30;;;12.40;99.90;;;;;;6288085;22;20015;-95
2022/10/25 22:20:29;;;;;;;5.50;2.00;;;12.30;99.90;;;;;;6288069;22;20014;-95
2022/10/25 22:31:46;;;;;;;5.65;2.47;;;11.90;99.90;;;;;;6340814;22;20071;-94
2022/10/25 23:35:00;;;;;;;6.72;2.47;;;11.40;99.90;;;;;;6234617;22;20029;-92
2022/10/25 23:37:37;;;;;;;5.28;2.00;;;11.40;99.90;;;;;;6330611;22;20054;-93
